createdAt,value
2018-02-24T00:00:26.877Z,20.90
2018-02-24T00:02:58.079Z,24.63
2018-02-24T00:05:29.398Z,24.02
2018-02-24T00:08:00.593Z,24.60
2018-02-24T00:10:31.816Z,22.77
2018-02-24T00:13:03.016Z,21.42
2018-02-24T00:15:34.339Z,25.37
2018-02-24T00:18:05.494Z,26.73
2018-02-24T00:20:37.475Z,22.65
2018-02-24T00:23:08.653Z,24.10
2018-02-24T00:25:39.874Z,23.90
2018-02-24T00:28:11.078Z,27.02
2018-02-24T00:30:42.237Z,22.67
2018-02-24T00:33:14.197Z,22.27
2018-02-24T00:35:46.220Z,21.73
2018-02-24T00:38:17.405Z,23.27
2018-02-24T00:40:49.386Z,21.70
2018-02-24T00:43:20.574Z,25.42
2018-02-24T00:45:51.774Z,24.52
2018-02-24T00:48:22.987Z,22.27
2018-02-24T00:50:55.000Z,29.35
2018-02-24T00:53:26.206Z,26.33
2018-02-24T00:55:58.219Z,25.27
2018-02-24T00:58:29.426Z,21.90
2018-02-24T01:01:00.628Z,21.52
2018-02-24T01:03:31.810Z,19.85
2018-02-24T01:06:03.012Z,24.23
2018-02-24T01:08:34.198Z,22.62
2018-02-24T01:11:05.419Z,25.12
2018-02-24T01:13:37.352Z,22.13
2018-02-24T01:16:08.960Z,22.23
2018-02-24T01:18:40.208Z,22.50
2018-02-24T01:21:11.418Z,23.00
2018-02-24T01:23:43.344Z,25.20
2018-02-24T01:26:14.579Z,23.67
2018-02-24T01:28:45.796Z,27.00
2018-02-24T01:31:17.050Z,26.05
2018-02-24T01:33:48.251Z,21.08
2018-02-24T01:36:20.264Z,25.70
2018-02-24T01:38:51.487Z,25.52
2018-02-24T01:41:22.644Z,25.67
2018-02-24T01:43:53.850Z,26.15
2018-02-24T01:46:25.769Z,23.17
2018-02-24T01:48:56.979Z,21.98
2018-02-24T01:51:28.139Z,21.60
2018-02-24T01:53:59.972Z,22.75
2018-02-24T01:56:31.214Z,23.58
2018-02-24T01:59:02.396Z,23.00
2018-02-24T02:01:33.813Z,21.70
2018-02-24T02:04:04.987Z,23.48
2018-02-24T02:06:36.200Z,26.95
2018-02-24T02:09:07.380Z,25.25
2018-02-24T02:11:38.585Z,27.52
2018-02-24T02:14:09.770Z,28.90
2018-02-24T02:16:41.179Z,26.15
2018-02-24T02:19:12.403Z,31.20
2018-02-24T02:21:43.622Z,27.10
2018-02-24T02:24:14.794Z,31.62
2018-02-24T02:26:46.386Z,24.73
2018-02-24T02:29:17.560Z,30.37
2018-02-24T02:31:50.232Z,24.08
2018-02-24T02:34:21.440Z,31.80
2018-02-24T02:36:52.660Z,27.55
2018-02-24T02:39:23.904Z,20.98
2018-02-24T02:41:55.107Z,21.75
2018-02-24T02:44:26.416Z,24.33
2018-02-24T02:46:57.637Z,19.20
2018-02-24T02:49:28.828Z,21.85
2018-02-24T02:52:00.022Z,20.00
2018-02-24T02:54:31.557Z,19.20
2018-02-24T02:57:03.611Z,22.75
2018-02-24T02:59:34.998Z,20.42
2018-02-24T03:02:06.204Z,19.77
2018-02-24T03:04:38.185Z,18.42
2018-02-24T03:07:10.119Z,18.87
2018-02-24T03:09:41.360Z,18.30
2018-02-24T03:12:12.559Z,15.95
2018-02-24T03:14:43.786Z,15.32
2018-02-24T03:17:15.096Z,18.33
2018-02-24T03:19:46.308Z,18.10
2018-02-24T03:22:17.501Z,18.80
2018-02-24T03:24:49.450Z,18.08
2018-02-24T03:27:20.637Z,17.30
2018-02-24T03:29:52.000Z,20.62
2018-02-24T03:32:23.287Z,22.30
2018-02-24T03:34:55.212Z,18.15
2018-02-24T03:37:26.471Z,18.77
2018-02-24T03:39:57.653Z,19.12
2018-02-24T03:42:28.897Z,16.73
2018-02-24T03:45:00.110Z,16.92
2018-02-24T03:47:32.092Z,17.87
2018-02-24T03:50:04.072Z,19.50
2018-02-24T03:52:35.952Z,16.92
2018-02-24T03:55:07.139Z,19.58
2018-02-24T03:57:38.459Z,17.15
2018-02-24T04:00:09.667Z,19.27
2018-02-24T04:02:40.884Z,20.25
2018-02-24T04:05:12.814Z,16.92
2018-02-24T04:07:44.342Z,15.93
2018-02-24T04:10:15.575Z,18.35
2018-02-24T04:12:47.115Z,15.38
2018-02-24T04:15:18.313Z,16.40
2018-02-24T04:17:49.703Z,19.25
2018-02-24T04:20:21.675Z,16.13
2018-02-24T04:22:52.865Z,16.58
2018-02-24T04:25:24.108Z,15.98
2018-02-24T04:27:55.563Z,16.25
2018-02-24T04:30:26.762Z,14.35
2018-02-24T04:32:58.099Z,19.00
2018-02-24T04:35:29.298Z,16.92
2018-02-24T04:38:00.661Z,15.43
2018-02-24T04:40:32.616Z,15.45
2018-02-24T04:43:03.888Z,16.77
2018-02-24T04:45:35.471Z,16.12
2018-02-24T04:48:06.669Z,15.93
2018-02-24T04:50:37.906Z,18.37
2018-02-24T04:53:10.347Z,18.17
2018-02-24T04:55:41.534Z,17.23
2018-02-24T04:58:12.812Z,17.27
2018-02-24T05:00:43.996Z,15.45
2018-02-24T05:03:15.216Z,17.37
2018-02-24T05:05:46.407Z,17.77
2018-02-24T05:08:18.012Z,20.40
2018-02-24T05:10:49.444Z,15.48
2018-02-24T05:13:20.812Z,16.52
2018-02-24T05:15:52.037Z,21.83
2018-02-24T05:18:23.337Z,17.00
2018-02-24T05:20:55.309Z,20.23
2018-02-24T05:23:26.567Z,16.93
2018-02-24T05:25:57.723Z,21.57
2018-02-24T05:28:28.944Z,17.50
2018-02-24T05:31:00.145Z,18.93
2018-02-24T05:33:31.385Z,18.87
2018-02-24T05:36:02.612Z,15.97
2018-02-24T05:38:33.922Z,20.97
2018-02-24T05:41:05.884Z,18.67
2018-02-24T05:43:37.825Z,19.20
2018-02-24T05:46:09.016Z,17.00
2018-02-24T05:48:40.471Z,17.07
2018-02-24T05:51:11.660Z,15.90
2018-02-24T05:53:42.913Z,15.77
2018-02-24T05:56:14.853Z,13.90
2018-02-24T05:58:46.922Z,15.10
2018-02-24T06:01:18.882Z,16.83
2018-02-24T06:03:50.294Z,17.53
2018-02-24T06:06:21.506Z,15.63
2018-02-24T06:08:53.467Z,15.33
2018-02-24T06:11:24.670Z,14.97
2018-02-24T06:13:55.864Z,14.17
2018-02-24T06:16:27.072Z,15.97
2018-02-24T06:18:58.368Z,13.73
2018-02-24T06:21:29.614Z,15.63
2018-02-24T06:24:00.885Z,14.93
2018-02-24T06:26:32.140Z,12.80
2018-02-24T06:29:03.339Z,13.77
2018-02-24T06:31:34.609Z,11.73
2018-02-24T06:34:05.791Z,13.27
2018-02-24T06:36:38.005Z,15.23
2018-02-24T06:39:09.332Z,10.97
2018-02-24T06:41:41.263Z,7.60
2018-02-24T06:44:12.462Z,7.60
2018-02-24T06:46:43.725Z,8.13
2018-02-24T06:49:14.980Z,7.73
2018-02-24T06:51:46.203Z,6.60
2018-02-24T06:54:17.524Z,7.43
2018-02-24T06:56:49.112Z,7.03
2018-02-24T06:59:20.504Z,7.53
2018-02-24T07:01:52.464Z,7.27
2018-02-24T07:04:24.455Z,6.67
2018-02-24T07:06:55.682Z,8.27
2018-02-24T07:09:27.635Z,7.37
2018-02-24T07:11:58.856Z,9.00
2018-02-24T07:14:30.854Z,7.03
2018-02-24T07:17:02.088Z,5.57
2018-02-24T07:19:33.465Z,4.17
2018-02-24T07:22:05.012Z,6.50
2018-02-24T07:24:36.216Z,5.87
2018-02-24T07:27:08.196Z,4.53
2018-02-24T07:29:39.412Z,7.63
2018-02-24T07:32:11.429Z,5.57
2018-02-24T07:34:42.616Z,5.57
2018-02-24T07:37:14.636Z,9.63
2018-02-24T07:39:45.808Z,3.40
2018-02-24T07:42:17.433Z,3.97
2018-02-24T07:44:48.656Z,3.40
2018-02-24T07:47:19.980Z,2.77
2018-02-24T07:49:51.210Z,4.00
2018-02-24T07:52:23.248Z,2.83
2018-02-24T07:54:54.414Z,5.20
2018-02-24T07:57:25.674Z,5.80
2018-02-24T07:59:57.671Z,4.00
2018-02-24T08:02:28.884Z,5.20
2018-02-24T08:05:00.831Z,2.60
2018-02-24T08:07:32.125Z,3.33
2018-02-24T08:10:03.318Z,3.73
2018-02-24T08:12:34.574Z,7.33
2018-02-24T08:15:06.502Z,2.90
2018-02-24T08:17:38.022Z,3.40
2018-02-24T08:20:09.223Z,2.83
2018-02-24T08:22:41.200Z,3.10
2018-02-24T08:25:13.199Z,4.67
2018-02-24T08:27:44.431Z,3.07
2018-02-24T08:30:15.650Z,3.00
2018-02-24T08:32:47.608Z,3.63
2018-02-24T08:35:19.505Z,6.67
2018-02-24T08:37:51.074Z,5.33
2018-02-24T08:40:23.129Z,4.97
2018-02-24T08:42:54.308Z,2.40
2018-02-24T08:45:26.260Z,4.00
2018-02-24T08:47:57.458Z,2.97
2018-02-24T08:50:28.659Z,4.03
2018-02-24T08:53:00.610Z,2.10
2018-02-24T08:55:32.066Z,3.57
2018-02-24T08:58:03.260Z,4.43
2018-02-24T09:00:34.699Z,5.20
2018-02-24T09:03:05.886Z,2.60
2018-02-24T09:05:37.114Z,3.93
2018-02-24T09:08:08.288Z,4.50
2018-02-24T09:10:39.553Z,4.53
2018-02-24T09:13:10.726Z,5.00
2018-02-24T09:15:41.940Z,8.10
2018-02-24T09:18:13.905Z,2.53
2018-02-24T09:20:46.204Z,5.47
2018-02-24T09:23:17.416Z,4.43
2018-02-24T09:25:48.751Z,4.80
2018-02-24T09:28:20.776Z,4.07
2018-02-24T09:30:52.049Z,3.87
2018-02-24T09:33:23.293Z,3.93
2018-02-24T09:35:55.268Z,5.10
2018-02-24T09:38:27.289Z,6.40
2018-02-24T09:40:58.620Z,3.73
2018-02-24T09:43:29.856Z,3.23
2018-02-24T09:46:01.132Z,3.30
2018-02-24T09:48:32.299Z,3.50
2018-02-24T09:51:03.605Z,4.37
2018-02-24T09:53:34.873Z,5.47
2018-02-24T09:56:06.172Z,3.27
2018-02-24T09:58:37.390Z,4.17
2018-02-24T10:01:09.699Z,4.00
2018-02-24T10:03:40.907Z,3.33
2018-02-24T10:06:13.118Z,4.30
2018-02-24T10:08:44.349Z,3.60
2018-02-24T10:11:16.584Z,4.30
2018-02-24T10:13:47.763Z,3.10
2018-02-24T10:16:19.045Z,3.57
2018-02-24T10:18:50.553Z,5.87
2018-02-24T10:21:21.800Z,6.07
2018-02-24T10:23:53.089Z,6.67
2018-02-24T10:26:24.342Z,4.43
2018-02-24T10:28:56.304Z,3.17
2018-02-24T10:31:27.494Z,3.53
2018-02-24T10:33:58.771Z,3.33
2018-02-24T10:36:30.002Z,5.57
2018-02-24T10:39:01.256Z,2.73
2018-02-24T10:41:32.479Z,6.03
2018-02-24T10:44:03.706Z,3.27
2018-02-24T10:46:34.964Z,2.70
2018-02-24T10:49:12.669Z,3.37
2018-02-24T10:51:43.995Z,6.80
2018-02-24T10:54:15.215Z,3.37
2018-02-24T10:56:46.468Z,4.63
2018-02-24T10:59:18.506Z,5.80
2018-02-24T11:01:50.603Z,5.33
2018-02-24T11:04:21.857Z,6.07
2018-02-24T11:06:53.186Z,4.20
2018-02-24T11:09:24.559Z,4.50
2018-02-24T11:11:55.771Z,4.97
2018-02-24T11:14:27.014Z,6.00
2018-02-24T11:16:58.272Z,5.37
2018-02-24T11:19:29.490Z,2.73
2018-02-24T11:22:00.808Z,4.90
2018-02-24T11:24:32.019Z,4.50
2018-02-24T11:27:04.928Z,4.40
2018-02-24T11:29:36.292Z,4.57
2018-02-24T11:32:07.468Z,3.20
2018-02-24T11:34:38.712Z,5.80
2018-02-24T11:37:09.966Z,4.10
2018-02-24T11:39:41.330Z,5.13
2018-02-24T11:42:12.699Z,5.03
2018-02-24T11:44:44.170Z,4.47
2018-02-24T11:47:16.394Z,5.40
2018-02-24T11:49:47.631Z,4.27
2018-02-24T11:52:19.223Z,4.77
2018-02-24T11:54:50.468Z,4.73
2018-02-24T11:57:21.761Z,6.00
2018-02-24T11:59:52.985Z,4.00
2018-02-24T12:02:24.484Z,4.67
2018-02-24T12:04:55.803Z,3.57
2018-02-24T12:07:27.949Z,6.00
2018-02-24T12:09:59.339Z,4.03
2018-02-24T12:12:30.653Z,6.40
2018-02-24T12:15:02.587Z,4.33
2018-02-24T12:17:33.831Z,3.33
2018-02-24T12:20:05.057Z,4.23
2018-02-24T12:22:36.401Z,3.37
2018-02-24T12:25:07.623Z,5.70
2018-02-24T12:27:38.912Z,5.07
2018-02-24T12:30:10.133Z,3.93
2018-02-24T12:32:41.377Z,5.17
2018-02-24T12:35:13.345Z,5.03
2018-02-24T12:37:44.609Z,3.67
2018-02-24T12:40:16.631Z,6.70
2018-02-24T12:42:48.182Z,3.77
2018-02-24T12:45:19.448Z,4.43
2018-02-24T12:47:50.862Z,2.70
2018-02-24T12:50:22.130Z,3.03
2018-02-24T12:52:54.098Z,3.97
2018-02-24T12:55:25.318Z,2.93
2018-02-24T12:57:56.633Z,3.17
2018-02-24T13:00:27.835Z,5.73
2018-02-24T13:02:59.202Z,4.33
2018-02-24T13:05:30.521Z,3.40
2018-02-24T13:08:01.788Z,3.23
2018-02-24T13:10:33.604Z,2.67
2018-02-24T13:13:05.001Z,2.67
2018-02-24T13:15:36.253Z,3.20
2018-02-24T13:18:07.507Z,10.33
2018-02-24T13:20:38.734Z,3.30
2018-02-24T13:23:10.122Z,3.90
2018-02-24T13:25:41.398Z,3.77
2018-02-24T13:28:12.636Z,4.23
2018-02-24T13:30:44.060Z,3.80
2018-02-24T13:33:15.330Z,3.57
2018-02-24T13:35:46.564Z,3.73
2018-02-24T13:38:18.019Z,3.60
2018-02-24T13:40:49.216Z,4.67
2018-02-24T13:43:20.549Z,4.77
2018-02-24T13:45:51.780Z,4.53
2018-02-24T13:48:23.039Z,3.90
2018-02-24T13:50:54.230Z,4.17
2018-02-24T13:53:25.805Z,3.73
2018-02-24T13:55:57.141Z,6.73
2018-02-24T13:58:28.345Z,4.10
2018-02-24T14:00:59.547Z,5.07
2018-02-24T14:03:30.843Z,4.10
2018-02-24T14:06:02.076Z,5.70
2018-02-24T14:08:33.315Z,3.03
2018-02-24T14:11:04.701Z,7.10
2018-02-24T14:13:35.960Z,5.07
2018-02-24T14:16:07.193Z,4.87
2018-02-24T14:18:38.665Z,5.27
2018-02-24T14:21:09.899Z,3.33
2018-02-24T14:23:41.192Z,4.40
2018-02-24T14:26:12.426Z,3.43
2018-02-24T14:28:43.609Z,6.17
2018-02-24T14:31:14.889Z,3.70
2018-02-24T14:33:46.363Z,5.63
2018-02-24T14:36:17.576Z,4.93
2018-02-24T14:38:48.849Z,4.83
2018-02-24T14:41:20.073Z,6.13
2018-02-24T14:43:51.348Z,4.97
2018-02-24T14:46:22.631Z,5.63
2018-02-24T14:48:53.879Z,5.87
2018-02-24T14:51:25.208Z,5.53
2018-02-24T14:53:57.320Z,6.13
2018-02-24T14:56:28.877Z,4.60
2018-02-24T14:59:00.092Z,3.50
2018-02-24T15:01:31.360Z,3.80
2018-02-24T15:04:03.096Z,5.33
2018-02-24T15:06:34.305Z,6.50
2018-02-24T15:09:06.332Z,4.80
2018-02-24T15:11:37.529Z,5.17
2018-02-24T15:14:08.782Z,4.43
2018-02-24T15:16:39.950Z,7.87
2018-02-24T15:19:11.186Z,4.33
2018-02-24T15:21:42.438Z,6.27
2018-02-24T15:24:13.697Z,4.83
2018-02-24T15:26:45.674Z,5.80
2018-02-24T15:29:17.789Z,7.60
2018-02-24T15:31:49.010Z,6.90
2018-02-24T15:34:21.121Z,5.97
2018-02-24T15:36:52.355Z,4.70
2018-02-24T15:39:23.746Z,4.10
2018-02-24T15:41:54.951Z,4.77
2018-02-24T15:44:26.240Z,4.37
2018-02-24T15:46:58.221Z,4.73
2018-02-24T15:49:29.451Z,4.73
2018-02-24T15:52:01.376Z,5.57
2018-02-24T15:54:32.673Z,4.77
2018-02-24T15:57:03.890Z,5.83
2018-02-24T15:59:35.841Z,5.33
2018-02-24T16:02:07.072Z,4.43
2018-02-24T16:04:38.341Z,5.27
2018-02-24T16:07:10.308Z,5.30
2018-02-24T16:09:41.856Z,5.43
2018-02-24T16:12:13.076Z,5.67
2018-02-24T16:14:44.341Z,4.03
2018-02-24T16:17:15.568Z,5.17
2018-02-24T16:19:46.810Z,5.23
2018-02-24T16:22:18.783Z,6.10
2018-02-24T16:24:50.062Z,4.50
2018-02-24T16:27:22.028Z,6.60
2018-02-24T16:29:53.351Z,5.23
2018-02-24T16:32:24.601Z,5.10
2018-02-24T16:34:56.599Z,7.33
2018-02-24T16:37:27.910Z,5.43
2018-02-24T16:39:59.917Z,4.50
2018-02-24T16:42:31.122Z,5.63
2018-02-24T16:45:03.230Z,5.03
2018-02-24T16:47:34.433Z,5.80
2018-02-24T16:50:06.017Z,6.60
2018-02-24T16:52:37.241Z,5.10
2018-02-24T16:55:08.596Z,5.80
2018-02-24T16:57:39.865Z,5.53
2018-02-24T17:00:11.068Z,5.30
2018-02-24T17:02:42.319Z,5.47
2018-02-24T17:05:13.602Z,5.20
2018-02-24T17:07:44.839Z,4.53
2018-02-24T17:10:16.052Z,5.77
2018-02-24T17:12:47.578Z,5.40
2018-02-24T17:15:18.789Z,5.37
2018-02-24T17:17:50.187Z,5.63
2018-02-24T17:20:21.515Z,6.20
2018-02-24T17:22:53.445Z,6.37
2018-02-24T17:25:24.706Z,7.40
2018-02-24T17:27:55.922Z,6.23
2018-02-24T17:30:27.153Z,6.73
2018-02-24T17:32:58.405Z,5.72
2018-02-24T17:35:29.642Z,6.20
2018-02-24T17:38:00.881Z,10.27
2018-02-24T17:40:32.129Z,5.77
2018-02-24T17:43:03.380Z,8.60
2018-02-24T17:45:34.669Z,8.43
2018-02-24T17:48:05.885Z,6.47
2018-02-24T17:50:37.901Z,7.00
2018-02-24T17:53:09.188Z,8.60
2018-02-24T17:55:40.439Z,8.25
2018-02-24T17:58:11.685Z,6.00
2018-02-24T18:00:42.964Z,6.83
2018-02-24T18:03:15.004Z,5.80
2018-02-24T18:05:46.347Z,6.77
2018-02-24T18:08:17.573Z,6.23
2018-02-24T18:10:48.819Z,7.57
2018-02-24T18:13:20.142Z,7.73
2018-02-24T18:15:51.340Z,9.63
2018-02-24T18:18:22.874Z,10.80
2018-02-24T18:20:54.160Z,11.32
2018-02-24T18:23:25.388Z,9.67
2018-02-24T18:25:57.474Z,10.35
2018-02-24T18:28:29.465Z,8.23
2018-02-24T18:31:00.712Z,8.05
2018-02-24T18:33:31.989Z,6.95
2018-02-24T18:36:04.053Z,6.80
2018-02-24T18:38:36.048Z,8.20
2018-02-24T18:41:08.082Z,5.87
2018-02-24T18:43:40.107Z,5.53
2018-02-24T18:46:11.432Z,7.70
2018-02-24T18:48:43.561Z,5.60
2018-02-24T18:51:14.861Z,7.15
2018-02-24T18:53:46.141Z,8.88
2018-02-24T18:56:18.120Z,9.80
2018-02-24T18:58:50.470Z,7.85
2018-02-24T19:01:21.721Z,6.97
2018-02-24T19:03:53.064Z,8.32
2018-02-24T19:06:24.427Z,7.05
2018-02-24T19:08:56.408Z,7.97
2018-02-24T19:11:28.039Z,6.28
2018-02-24T19:14:00.026Z,7.32
2018-02-24T19:16:31.352Z,10.75
2018-02-24T19:19:03.305Z,8.88
2018-02-24T19:21:34.532Z,8.30
2018-02-24T19:24:05.737Z,11.15
2018-02-24T19:26:37.123Z,9.82
2018-02-24T19:29:08.391Z,8.13
2018-02-24T19:31:40.406Z,9.82
2018-02-24T19:34:11.601Z,10.25
2018-02-24T19:36:43.747Z,8.40
2018-02-24T19:39:15.495Z,8.95
2018-02-24T19:41:47.143Z,9.68
2018-02-24T19:44:18.366Z,8.55
2018-02-24T19:46:49.633Z,10.63
2018-02-24T19:49:20.914Z,6.12
2018-02-24T19:51:52.160Z,7.37
2018-02-24T19:54:23.410Z,7.05
2018-02-24T19:56:55.604Z,6.68
2018-02-24T19:59:26.772Z,9.77
2018-02-24T21:23:59.790Z,6.95
2018-02-24T21:26:31.002Z,6.37
2018-02-24T21:29:02.229Z,8.85
2018-02-24T21:31:33.509Z,6.07
2018-02-24T21:34:04.711Z,12.80
2018-02-24T21:36:38.240Z,8.52
2018-02-24T21:39:09.446Z,8.27
2018-02-24T21:41:40.926Z,8.25
2018-02-24T21:44:12.687Z,5.75
2018-02-24T21:46:43.958Z,6.43
2018-02-24T21:49:15.525Z,6.37
2018-02-24T21:51:47.475Z,8.50
2018-02-24T21:54:18.882Z,6.68
2018-02-24T21:56:50.093Z,7.10
2018-02-24T21:59:22.057Z,4.65
2018-02-24T22:01:53.985Z,6.00
2018-02-24T22:04:25.311Z,8.52
2018-02-24T22:06:56.515Z,8.05
2018-02-24T22:09:28.206Z,7.35
2018-02-24T22:11:59.442Z,7.30
2018-02-24T22:14:30.743Z,7.32
2018-02-24T22:17:02.685Z,7.18
2018-02-24T22:19:33.954Z,7.30
2018-02-24T22:22:05.225Z,7.95
2018-02-24T22:24:36.437Z,6.55
2018-02-24T22:27:08.412Z,8.13
2018-02-24T22:29:39.680Z,6.72
2018-02-24T22:32:11.256Z,7.35
2018-02-24T22:34:42.459Z,7.93
2018-02-24T22:37:28.747Z,7.12
2018-02-24T22:40:00.028Z,7.15
2018-02-24T22:42:31.358Z,9.00
2018-02-24T22:45:02.567Z,7.10
2018-02-24T22:47:41.023Z,7.87
2018-02-24T22:50:12.573Z,8.27
2018-02-24T22:52:43.810Z,9.68
2018-02-24T22:55:15.069Z,10.40
2018-02-24T22:57:46.289Z,8.48
2018-02-24T23:00:18.319Z,9.48
2018-02-24T23:02:49.812Z,8.25
2018-02-24T23:05:21.081Z,9.45
2018-02-24T23:07:52.277Z,7.57
2018-02-24T23:10:23.648Z,8.13
2018-02-24T23:12:54.899Z,6.90
2018-02-24T23:15:26.272Z,8.77
2018-02-24T23:17:57.617Z,8.20
2018-02-24T23:20:28.895Z,6.20
2018-02-24T23:23:00.221Z,8.45
2018-02-24T23:25:31.455Z,9.48
2018-02-24T23:28:02.641Z,9.80
2018-02-24T23:30:34.622Z,7.72
2018-02-24T23:33:05.787Z,10.27
2018-02-24T23:35:37.062Z,8.27
2018-02-24T23:38:08.271Z,8.60
2018-02-24T23:40:39.500Z,7.87
2018-02-24T23:43:11.103Z,9.80
2018-02-24T23:45:42.324Z,11.10
2018-02-24T23:48:13.517Z,10.02
2018-02-24T23:50:44.761Z,9.70
2018-02-24T23:53:16.729Z,7.43
2018-02-24T23:55:48.805Z,11.07
2018-02-24T23:58:20.038Z,8.95
